Time;durP1;ratioP1;P1;durP2;ratioP2;P2;SDS_P1;SDS_P2;PMS_P1;PMS_P2;Temp;Humidity;BMP_temperature;BMP_pressure;BME280_temperature;BME280_humidity;BME280_pressure;Samples;Min_cycle;Max_cycle;Signal;HPM_P1;HPM_P2
2023/08/09 00:01:49;;;;;;;3.42;1.98;;;17.30;93.80;;;;;;5115417;28;20038;-78
2023/08/09 00:04:15;;;;;;;1.85;1.40;;;17.40;93.90;;;;;;5098432;28;20043;-78
2023/08/09 00:06:41;;;;;;;2.42;1.52;;;17.40;94.20;;;;;;5133327;28;20035;-78
2023/08/09 00:09:06;;;;;;;2.80;1.77;;;17.40;93.70;;;;;;5100687;28;20043;-78
2023/08/09 00:11:32;;;;;;;2.28;1.50;;;17.40;93.80;;;;;;5136959;28;20016;-78
2023/08/09 00:13:58;;;;;;;1.70;1.40;;;17.50;93.80;;;;;;5118787;28;20031;-78
2023/08/09 00:16:23;;;;;;;2.20;1.60;;;17.50;93.70;;;;;;5101907;28;20024;-78
2023/08/09 00:18:49;;;;;;;2.38;1.30;;;17.50;93.70;;;;;;5118784;28;20030;-77
2023/08/09 00:21:15;;;;;;;2.50;1.50;;;17.50;93.70;;;;;;5136899;28;20036;-77
2023/08/09 00:23:40;;;;;;;2.20;1.67;;;17.40;93.50;;;;;;5136666;28;20028;-78
2023/08/09 00:26:06;;;;;;;3.45;1.80;;;17.30;93.40;;;;;;5118491;28;20043;-78
2023/08/09 00:28:32;;;;;;;1.85;1.52;;;17.20;93.60;;;;;;5118555;28;20032;-77
2023/08/09 00:30:58;;;;;;;2.95;1.90;;;17.10;93.80;;;;;;5118461;28;20097;-77
2023/08/09 00:33:23;;;;;;;2.15;1.70;;;17.10;94.00;;;;;;5136397;28;20035;-78
2023/08/09 00:35:49;;;;;;;2.25;1.70;;;17.00;94.30;;;;;;5118367;28;20028;-77
2023/08/09 00:38:15;;;;;;;4.45;1.73;;;17.10;94.20;;;;;;5136426;28;20040;-78
2023/08/09 00:40:40;;;;;;;3.08;1.85;;;17.00;94.20;;;;;;5136358;28;20023;-78
2023/08/09 00:43:06;;;;;;;2.72;1.95;;;17.00;94.20;;;;;;5118414;28;20076;-78
2023/08/09 00:45:33;;;;;;;2.55;1.80;;;17.00;94.30;;;;;;5118175;28;20054;-78
2023/08/09 00:48:00;;;;;;;2.08;1.60;;;17.00;94.40;;;;;;5118137;28;20043;-78
2023/08/09 00:50:26;;;;;;;2.53;1.92;;;17.00;94.50;;;;;;5136327;28;20083;-77
2023/08/09 00:52:52;;;;;;;2.83;2.10;;;17.00;94.50;;;;;;5118159;28;20065;-78
2023/08/09 00:55:18;;;;;;;2.90;1.90;;;17.10;94.40;;;;;;5118391;28;20024;-78
2023/08/09 00:57:46;;;;;;;4.63;2.03;;;17.10;94.50;;;;;;5084467;28;20024;-78
2023/08/09 01:00:12;;;;;;;2.65;2.00;;;17.10;94.50;;;;;;5101232;28;20023;-78
2023/08/09 01:02:38;;;;;;;2.65;1.90;;;17.20;94.40;;;;;;5136062;28;20024;-78
2023/08/09 01:05:04;;;;;;;5.97;2.20;;;17.20;94.30;;;;;;5117764;28;20097;-78
2023/08/09 01:07:55;;;;;;;2.40;1.77;;;17.20;94.30;;;;;;5117975;28;20023;-78
2023/08/09 01:10:31;;;;;;;2.97;1.90;;;17.20;94.10;;;;;;5072294;28;20028;-78
2023/08/09 01:13:03;;;;;;;2.60;1.90;;;17.20;94.10;;;;;;5117701;28;20020;-78
2023/08/09 01:15:31;;;;;;;5.77;2.10;;;17.20;94.10;;;;;;5135746;28;20016;-78
2023/08/09 01:17:58;;;;;;;2.80;2.20;;;17.20;94.10;;;;;;5118111;28;20063;-78
2023/08/09 01:20:25;;;;;;;2.60;1.67;;;17.20;94.10;;;;;;5135446;28;20020;-78
2023/08/09 01:23:00;;;;;;;2.40;1.80;;;17.20;94.10;;;;;;5135547;28;20079;-78
2023/08/09 01:25:26;;;;;;;4.18;1.95;;;17.20;93.90;;;;;;5117365;28;20034;-77
2023/08/09 01:27:52;;;;;;;3.05;2.10;;;17.00;93.80;;;;;;5117402;28;20044;-78
2023/08/09 01:30:18;;;;;;;5.35;2.35;;;17.00;94.00;;;;;;5135375;28;20051;-78
2023/08/09 01:32:44;;;;;;;3.58;2.15;;;16.90;94.10;;;;;;5135318;28;20028;-78
2023/08/09 01:35:10;;;;;;;2.75;2.20;;;17.00;94.10;;;;;;5100230;28;20054;-78
2023/08/09 01:37:45;;;;;;;3.05;2.25;;;17.00;94.10;;;;;;5135219;28;20019;-78
2023/08/09 01:40:12;;;;;;;3.20;2.22;;;17.00;93.90;;;;;;5135160;28;20050;-78
2023/08/09 01:42:39;;;;;;;3.40;2.13;;;17.00;94.00;;;;;;5135142;28;20537;-78
2023/08/09 01:45:06;;;;;;;3.15;2.40;;;17.00;93.90;;;;;;5134843;28;20040;-78
2023/08/09 01:47:32;;;;;;;3.47;2.20;;;16.90;93.70;;;;;;5117249;28;20049;-77
2023/08/09 01:49:58;;;;;;;3.08;2.20;;;16.90;93.50;;;;;;5083513;28;20051;-78
2023/08/09 01:52:24;;;;;;;3.10;2.30;;;16.80;93.50;;;;;;5117037;28;20471;-78
2023/08/09 01:54:50;;;;;;;4.28;2.40;;;16.70;93.60;;;;;;5116925;28;20030;-78
2023/08/09 01:57:15;;;;;;;2.65;1.85;;;16.70;93.80;;;;;;5116882;28;20038;-77
2023/08/09 01:59:43;;;;;;;2.28;1.63;;;16.60;93.90;;;;;;5116779;28;20095;-78
2023/08/09 02:02:08;;;;;;;3.15;2.25;;;16.60;93.90;;;;;;5116682;28;20045;-78
2023/08/09 02:04:34;;;;;;;3.58;2.28;;;16.50;94.00;;;;;;5134660;28;20023;-78
2023/08/09 02:07:00;;;;;;;3.75;2.20;;;16.50;94.00;;;;;;5134667;28;20073;-78
2023/08/09 02:09:28;;;;;;;2.67;1.73;;;16.60;94.00;;;;;;5134615;28;20023;-77
2023/08/09 02:11:54;;;;;;;2.20;1.70;;;16.50;93.90;;;;;;5134691;28;20035;-78
2023/08/09 02:14:20;;;;;;;1.98;1.40;;;16.50;93.80;;;;;;5099737;28;20095;-78
2023/08/09 02:16:46;;;;;;;1.70;1.40;;;16.50;93.70;;;;;;5134488;28;20030;-78
2023/08/09 02:19:12;;;;;;;2.03;1.50;;;16.40;93.60;;;;;;5116689;28;20039;-77
2023/08/09 02:21:39;;;;;;;2.22;1.75;;;16.40;93.60;;;;;;5134390;28;20031;-78
2023/08/09 02:24:05;;;;;;;4.68;1.90;;;16.40;93.60;;;;;;5134400;28;20030;-78
2023/08/09 02:26:32;;;;;;;4.90;2.20;;;16.30;93.60;;;;;;5134382;28;20024;-78
2023/08/09 02:28:57;;;;;;;2.67;2.00;;;16.40;93.50;;;;;;5116375;28;20031;-77
2023/08/09 02:31:23;;;;;;;2.70;1.90;;;16.30;93.40;;;;;;5115774;28;20118;-77
2023/08/09 02:33:48;;;;;;;3.10;1.80;;;16.30;93.30;;;;;;5116209;28;20024;-77
2023/08/09 02:36:14;;;;;;;3.00;2.10;;;16.40;93.30;;;;;;5116375;28;20036;-78
2023/08/09 02:38:40;;;;;;;2.40;1.27;;;16.30;93.30;;;;;;5116293;28;20054;-78
2023/08/09 02:41:06;;;;;;;2.45;1.60;;;16.30;93.10;;;;;;5116314;28;20024;-78
2023/08/09 02:43:32;;;;;;;3.10;1.35;;;16.30;92.90;;;;;;5116165;28;20020;-77
2023/08/09 02:45:57;;;;;;;2.10;1.70;;;16.20;92.80;;;;;;5078874;28;20063;-77
2023/08/09 02:48:24;;;;;;;5.43;1.48;;;16.10;92.90;;;;;;5129661;28;20016;-77
2023/08/09 02:50:50;;;;;;;2.20;1.30;;;16.10;93.10;;;;;;5113646;28;20363;-77
2023/08/09 02:53:17;;;;;;;2.88;1.63;;;16.00;93.00;;;;;;5113575;28;20031;-78
2023/08/09 02:55:43;;;;;;;2.67;1.60;;;16.00;93.00;;;;;;5113577;28;20054;-77
2023/08/09 02:58:09;;;;;;;2.65;1.88;;;16.00;92.90;;;;;;5129510;28;20041;-77
2023/08/09 03:00:35;;;;;;;2.80;2.00;;;16.00;92.90;;;;;;5113530;28;20074;-77
2023/08/09 03:03:01;;;;;;;2.75;1.95;;;15.90;92.90;;;;;;5095612;28;20028;-77
2023/08/09 03:05:27;;;;;;;3.45;2.50;;;15.90;92.90;;;;;;5113422;28;20021;-77
2023/08/09 03:07:53;;;;;;;5.55;2.60;;;15.90;92.90;;;;;;5112493;28;20027;-78
2023/08/09 03:10:19;;;;;;;4.25;2.60;;;15.90;92.80;;;;;;5112348;28;20073;-77
2023/08/09 03:12:45;;;;;;;4.65;2.80;;;15.90;92.90;;;;;;5113379;28;20032;-77
2023/08/09 03:15:11;;;;;;;4.45;3.15;;;15.90;92.70;;;;;;5113353;28;20028;-77
2023/08/09 03:17:37;;;;;;;4.57;2.88;;;15.90;92.60;;;;;;5095440;28;20032;-77
2023/08/09 03:20:13;;;;;;;5.18;3.15;;;15.80;92.60;;;;;;5113385;28;20024;-78
2023/08/09 03:22:43;;;;;;;6.82;3.60;;;15.80;92.50;;;;;;5096826;28;20024;-77
2023/08/09 03:25:10;;;;;;;6.68;3.60;;;15.60;92.60;;;;;;5112180;28;20020;-77
2023/08/09 03:27:36;;;;;;;5.45;3.33;;;15.60;92.60;;;;;;5112400;28;20085;-77
2023/08/09 03:30:04;;;;;;;4.13;2.95;;;15.50;92.60;;;;;;5095275;28;20025;-77
2023/08/09 03:32:30;;;;;;;4.63;2.67;;;15.50;92.60;;;;;;5113176;28;20044;-77
2023/08/09 03:34:55;;;;;;;3.40;2.58;;;15.50;92.60;;;;;;5113180;28;20390;-77
2023/08/09 03:37:21;;;;;;;4.63;2.60;;;15.40;92.70;;;;;;5112191;28;20039;-78
2023/08/09 03:39:47;;;;;;;4.95;3.13;;;15.40;92.90;;;;;;5112137;28;20032;-77
2023/08/09 03:42:12;;;;;;;4.68;2.65;;;15.30;93.00;;;;;;5078468;28;20032;-77
2023/08/09 03:44:38;;;;;;;4.10;2.78;;;15.30;93.00;;;;;;5097999;28;20052;-77
2023/08/09 03:47:04;;;;;;;6.82;2.90;;;15.40;93.00;;;;;;5116981;28;20024;-77
2023/08/09 03:49:29;;;;;;;5.70;2.60;;;15.40;92.90;;;;;;5099002;28;20024;-77
2023/08/09 03:51:55;;;;;;;4.38;2.75;;;15.30;92.90;;;;;;5116000;28;20028;-77
2023/08/09 03:54:21;;;;;;;5.03;3.10;;;15.30;92.90;;;;;;5115887;28;20070;-77
2023/08/09 03:56:46;;;;;;;4.00;2.97;;;15.40;92.90;;;;;;5115728;28;20050;-77
2023/08/09 03:59:12;;;;;;;6.13;3.53;;;15.40;92.80;;;;;;5116722;28;20024;-77
2023/08/09 04:01:37;;;;;;;6.90;3.33;;;15.30;92.80;;;;;;5115615;28;20035;-77
2023/08/09 04:04:05;;;;;;;4.75;3.22;;;15.30;92.80;;;;;;5098577;28;20032;-77
2023/08/09 04:06:30;;;;;;;5.15;3.20;;;15.30;92.70;;;;;;5116599;28;20024;-77
2023/08/09 04:08:56;;;;;;;6.38;3.25;;;15.30;92.60;;;;;;5116534;28;20020;-78
2023/08/09 04:11:23;;;;;;;4.97;3.15;;;15.30;92.70;;;;;;5115410;28;20081;-77
2023/08/09 04:13:48;;;;;;;4.05;2.95;;;15.30;93.10;;;;;;5115788;28;20352;-77
2023/08/09 04:16:14;;;;;;;6.68;3.28;;;15.30;92.70;;;;;;5115463;28;20047;-77
2023/08/09 04:18:39;;;;;;;3.55;2.70;;;15.30;92.50;;;;;;5116461;28;20463;-77
2023/08/09 04:21:06;;;;;;;4.28;2.88;;;15.30;92.40;;;;;;5115267;28;20020;-77
2023/08/09 04:23:32;;;;;;;4.15;2.75;;;15.20;92.60;;;;;;5115354;28;20024;-77
2023/08/09 04:25:59;;;;;;;4.50;3.03;;;15.20;92.60;;;;;;5098260;28;20039;-77
2023/08/09 04:28:24;;;;;;;6.18;2.95;;;15.20;92.70;;;;;;5115222;28;20083;-77
2023/08/09 04:30:50;;;;;;;4.05;3.13;;;15.20;92.70;;;;;;5115088;28;20103;-77
2023/08/09 04:33:17;;;;;;;6.85;3.35;;;15.20;92.60;;;;;;5115219;28;20024;-77
2023/08/09 04:35:43;;;;;;;5.13;3.33;;;15.20;92.60;;;;;;5098155;28;20017;-77
2023/08/09 04:38:09;;;;;;;5.70;3.80;;;15.20;92.70;;;;;;5115092;28;20017;-77
2023/08/09 04:40:36;;;;;;;7.95;3.67;;;15.20;92.90;;;;;;5115039;28;20082;-77
2023/08/09 04:43:02;;;;;;;7.38;3.58;;;15.20;93.00;;;;;;5114847;28;20024;-77
2023/08/09 04:45:28;;;;;;;5.13;3.28;;;15.20;93.10;;;;;;5126147;28;20054;-77
2023/08/09 04:47:54;;;;;;;5.55;3.72;;;15.20;93.10;;;;;;5136279;28;20027;-77
2023/08/09 04:50:20;;;;;;;6.78;3.45;;;15.20;93.20;;;;;;5101181;28;20038;-77
2023/08/09 04:52:46;;;;;;;5.15;3.33;;;15.20;93.20;;;;;;5136170;28;20016;-77
2023/08/09 04:55:12;;;;;;;6.25;3.15;;;15.20;93.30;;;;;;5135652;28;20020;-77
2023/08/09 04:57:38;;;;;;;5.13;3.28;;;15.20;93.40;;;;;;5136075;28;20031;-77
2023/08/09 05:00:08;;;;;;;6.20;3.58;;;15.10;93.60;;;;;;5101152;28;20032;-77
2023/08/09 05:02:36;;;;;;;4.15;3.05;;;15.10;93.80;;;;;;5118159;28;20019;-78
2023/08/09 05:05:11;;;;;;;4.65;3.60;;;15.20;93.90;;;;;;5135859;28;20088;-77
2023/08/09 05:07:38;;;;;;;4.50;3.38;;;15.20;94.00;;;;;;5135913;28;20024;-77
2023/08/09 05:10:06;;;;;;;5.18;3.35;;;15.30;93.90;;;;;;5135833;28;20023;-77
2023/08/09 05:12:32;;;;;;;4.80;3.53;;;15.20;94.00;;;;;;5118178;28;20020;-77
2023/08/09 05:14:57;;;;;;;5.10;3.35;;;15.30;94.10;;;;;;5100857;28;20099;-77
2023/08/09 05:17:24;;;;;;;5.20;3.38;;;15.30;94.20;;;;;;5100820;28;20093;-77
2023/08/09 05:19:50;;;;;;;4.72;3.38;;;15.40;94.20;;;;;;5135605;28;20024;-77
2023/08/09 05:22:15;;;;;;;6.38;3.65;;;15.40;94.00;;;;;;5117583;28;20042;-77
2023/08/09 05:24:41;;;;;;;6.35;4.40;;;15.30;94.00;;;;;;5100467;28;20095;-77
2023/08/09 05:27:07;;;;;;;6.13;4.05;;;15.30;94.20;;;;;;5117497;28;20020;-78
2023/08/09 05:29:33;;;;;;;6.53;4.30;;;15.30;94.30;;;;;;5117340;28;20479;-78
2023/08/09 05:31:58;;;;;;;5.07;3.95;;;15.40;94.30;;;;;;5135402;28;20093;-77
2023/08/09 05:34:24;;;;;;;5.63;4.25;;;15.40;94.50;;;;;;5117374;28;20035;-77
2023/08/09 05:36:50;;;;;;;7.65;4.88;;;15.40;94.50;;;;;;5117410;28;20024;-77
2023/08/09 05:39:15;;;;;;;7.35;5.10;;;15.40;94.60;;;;;;5100239;28;20099;-78
2023/08/09 05:41:41;;;;;;;7.13;4.72;;;15.50;94.70;;;;;;5135026;28;20030;-77
2023/08/09 05:44:07;;;;;;;8.07;5.22;;;15.50;94.80;;;;;;5117045;28;20024;-77
2023/08/09 05:46:33;;;;;;;9.70;5.20;;;15.50;94.90;;;;;;5134893;28;20056;-77
2023/08/09 05:48:58;;;;;;;8.43;5.88;;;15.60;95.10;;;;;;5117220;28;20107;-77
2023/08/09 05:51:25;;;;;;;8.52;5.25;;;15.60;95.20;;;;;;5134964;28;20028;-78
2023/08/09 05:53:51;;;;;;;8.07;5.22;;;15.60;95.30;;;;;;5116938;28;20027;-78
2023/08/09 05:56:17;;;;;;;7.57;5.03;;;15.70;95.40;;;;;;5116893;28;20027;-77
2023/08/09 05:58:42;;;;;;;8.57;5.50;;;15.80;95.40;;;;;;5116850;28;20056;-77
2023/08/09 06:01:08;;;;;;;8.85;5.68;;;15.80;95.50;;;;;;5134825;28;20059;-77
2023/08/09 06:03:40;;;;;;;9.38;6.20;;;15.80;95.50;;;;;;5116877;28;20051;-78
2023/08/09 06:06:13;;;;;;;7.88;5.57;;;15.90;95.60;;;;;;5133927;28;20053;-77
2023/08/09 06:08:39;;;;;;;9.30;6.68;;;16.00;95.50;;;;;;5116584;28;20359;-77
2023/08/09 06:11:05;;;;;;;10.43;7.03;;;16.00;95.40;;;;;;5116669;28;20031;-77
2023/08/09 06:13:30;;;;;;;11.48;7.47;;;16.10;95.50;;;;;;5134569;28;20031;-77
2023/08/09 06:15:57;;;;;;;12.80;8.10;;;16.10;95.40;;;;;;5134556;28;20024;-77
2023/08/09 06:18:22;;;;;;;11.77;8.00;;;16.10;95.80;;;;;;5116703;28;20027;-77
2023/08/09 06:20:48;;;;;;;12.57;8.43;;;16.20;95.60;;;;;;5134451;28;20078;-77
2023/08/09 06:23:15;;;;;;;12.43;8.48;;;16.20;95.60;;;;;;5099373;28;20039;-77
2023/08/09 06:25:40;;;;;;;13.07;9.02;;;16.20;95.50;;;;;;5134310;28;20084;-77
2023/08/09 06:28:06;;;;;;;15.82;9.95;;;16.20;95.60;;;;;;5116304;28;20024;-77
2023/08/09 06:30:32;;;;;;;15.95;9.90;;;16.30;95.60;;;;;;5134289;28;20027;-78
2023/08/09 06:32:59;;;;;;;19.00;11.88;;;16.30;95.80;;;;;;5116484;28;20563;-77
2023/08/09 06:35:25;;;;;;;19.65;11.82;;;16.20;96.00;;;;;;5134168;28;20030;-77
2023/08/09 06:37:51;;;;;;;19.23;12.48;;;16.20;96.20;;;;;;5134131;28;20493;-78
2023/08/09 06:40:17;;;;;;;18.15;11.85;;;16.20;96.20;;;;;;5134160;28;20040;-77
2023/08/09 06:42:44;;;;;;;19.65;12.60;;;16.20;96.30;;;;;;5116280;28;20031;-78
2023/08/09 06:45:11;;;;;;;21.42;13.43;;;16.30;96.50;;;;;;5133828;28;20053;-78
2023/08/09 06:47:37;;;;;;;21.92;13.80;;;16.30;96.70;;;;;;5134138;28;20027;-78
2023/08/09 06:50:06;;;;;;;20.98;12.50;;;16.30;96.70;;;;;;5099105;28;20049;-78
2023/08/09 06:52:36;;;;;;;19.83;12.77;;;16.40;96.70;;;;;;5134028;28;20050;-78
2023/08/09 06:55:02;;;;;;;21.15;12.68;;;16.40;96.70;;;;;;5133973;28;20019;-78
2023/08/09 06:57:27;;;;;;;20.25;13.35;;;16.50;96.80;;;;;;5133913;28;20110;-78
2023/08/09 06:59:54;;;;;;;19.92;13.40;;;16.50;97.20;;;;;;5115982;28;20032;-77
2023/08/09 07:02:20;;;;;;;19.60;12.48;;;16.60;96.80;;;;;;5133919;28;20020;-78
2023/08/09 07:04:46;;;;;;;18.77;11.50;;;16.70;96.80;;;;;;5115785;28;20049;-78
2023/08/09 07:07:12;;;;;;;16.65;11.45;;;16.70;97.00;;;;;;5133850;28;20031;-77
2023/08/09 07:09:38;;;;;;;19.17;12.20;;;16.70;97.30;;;;;;5115917;28;20028;-78
2023/08/09 07:12:04;;;;;;;20.20;12.65;;;16.70;97.90;;;;;;5115849;28;20043;-77
2023/08/09 07:14:30;;;;;;;16.95;11.30;;;16.80;97.70;;;;;;5098958;28;20042;-79
2023/08/09 07:16:55;;;;;;;17.60;11.52;;;16.90;97.70;;;;;;5099279;28;20027;-78
2023/08/09 07:19:21;;;;;;;17.80;10.95;;;16.90;97.60;;;;;;5137971;28;20054;-80
2023/08/09 07:21:47;;;;;;;18.05;12.05;;;16.90;97.50;;;;;;5103004;28;20027;-79
2023/08/09 07:24:13;;;;;;;21.92;13.00;;;17.00;97.60;;;;;;5119701;28;20035;-77
2023/08/09 07:26:39;;;;;;;17.60;12.00;;;17.10;97.80;;;;;;5137830;28;20023;-77
2023/08/09 07:29:04;;;;;;;18.52;11.75;;;17.00;97.90;;;;;;5137811;28;20024;-77
2023/08/09 07:31:30;;;;;;;18.05;11.77;;;17.00;97.70;;;;;;5119805;28;20051;-77
2023/08/09 07:33:56;;;;;;;18.85;11.60;;;17.00;98.00;;;;;;5119664;28;20075;-77
2023/08/09 07:36:22;;;;;;;21.83;13.15;;;17.00;97.90;;;;;;5102664;28;20023;-77
2023/08/09 07:38:47;;;;;;;19.35;12.10;;;17.10;98.10;;;;;;5137732;28;20054;-77
2023/08/09 07:41:14;;;;;;;18.52;11.25;;;17.20;97.80;;;;;;5119818;28;20036;-77
2023/08/09 07:43:39;;;;;;;19.00;12.32;;;17.30;98.00;;;;;;5102678;28;20382;-77
2023/08/09 07:46:06;;;;;;;16.80;11.50;;;17.30;97.80;;;;;;5115789;28;20112;-77
2023/08/09 07:48:32;;;;;;;17.98;11.98;;;17.40;97.60;;;;;;5116993;28;20047;-77
2023/08/09 07:50:58;;;;;;;20.17;12.48;;;17.40;97.60;;;;;;5117024;28;20020;-77
2023/08/09 07:53:24;;;;;;;21.90;12.48;;;17.30;97.70;;;;;;5115920;28;20054;-77
2023/08/09 07:55:49;;;;;;;18.25;11.50;;;17.40;97.50;;;;;;5116786;28;20027;-77
2023/08/09 07:58:15;;;;;;;18.30;10.98;;;17.50;97.60;;;;;;5115899;28;20047;-77
2023/08/09 08:00:41;;;;;;;17.05;10.80;;;17.60;97.60;;;;;;5116830;28;20032;-78
2023/08/09 08:03:06;;;;;;;19.85;11.95;;;17.60;97.40;;;;;;5116677;28;20035;-77
2023/08/09 08:05:32;;;;;;;18.92;10.85;;;17.60;97.60;;;;;;5116668;28;20032;-77
2023/08/09 08:07:58;;;;;;;15.98;10.65;;;17.60;97.30;;;;;;5098727;28;20028;-77
2023/08/09 08:10:24;;;;;;;18.45;10.77;;;17.60;97.30;;;;;;5116693;28;20039;-77
2023/08/09 08:12:49;;;;;;;16.33;11.05;;;17.60;97.20;;;;;;5116478;28;20020;-77
2023/08/09 08:15:17;;;;;;;17.70;11.55;;;17.60;97.30;;;;;;5116437;28;20063;-77
2023/08/09 08:17:46;;;;;;;16.77;10.73;;;17.70;97.30;;;;;;5116376;28;20021;-77
2023/08/09 08:20:15;;;;;;;15.80;11.27;;;17.70;97.40;;;;;;5115612;28;20117;-78
2023/08/09 08:22:45;;;;;;;17.58;10.13;;;17.60;97.20;;;;;;5116299;28;20043;-77
2023/08/09 08:25:16;;;;;;;16.80;10.20;;;17.70;97.40;;;;;;5115123;28;20036;-77
2023/08/09 08:27:45;;;;;;;16.42;11.23;;;17.70;97.20;;;;;;5116386;28;20020;-77
2023/08/09 08:30:20;;;;;;;16.95;11.20;;;17.90;97.50;;;;;;5114318;28;20110;-77
2023/08/09 08:32:47;;;;;;;14.73;9.40;;;18.00;97.00;;;;;;5115318;28;20021;-78
2023/08/09 08:35:14;;;;;;;14.40;10.13;;;18.00;96.90;;;;;;5115963;28;20023;-77
2023/08/09 08:37:41;;;;;;;12.65;7.72;;;18.00;96.80;;;;;;5115135;28;20028;-77
2023/08/09 08:40:09;;;;;;;15.15;8.60;;;18.00;96.10;;;;;;5115986;28;20026;-77
2023/08/09 08:42:38;;;;;;;14.07;8.45;;;18.10;95.70;;;;;;5115930;28;20036;-77
2023/08/09 08:45:10;;;;;;;10.25;7.22;;;18.10;95.40;;;;;;5120536;28;20103;-77
2023/08/09 08:47:39;;;;;;;12.95;7.95;;;18.00;95.00;;;;;;5136492;28;20024;-77
2023/08/09 08:50:08;;;;;;;11.60;7.45;;;18.10;95.10;;;;;;5118147;28;20020;-77
2023/08/09 08:52:36;;;;;;;10.70;7.30;;;18.20;95.30;;;;;;5118173;28;20042;-77
2023/08/09 08:55:06;;;;;;;11.43;6.15;;;18.30;95.30;;;;;;5136135;28;20012;-77
2023/08/09 08:57:33;;;;;;;10.07;6.75;;;18.40;94.90;;;;;;5118038;28;20024;-77
2023/08/09 09:00:07;;;;;;;11.35;6.30;;;18.50;93.60;;;;;;5117964;28;20035;-77
2023/08/09 09:02:36;;;;;;;11.82;7.25;;;18.60;94.10;;;;;;5118005;28;20034;-77
2023/08/09 09:05:03;;;;;;;8.23;5.15;;;18.70;94.20;;;;;;5135810;28;20024;-77
2023/08/09 09:07:29;;;;;;;7.97;5.25;;;18.80;93.90;;;;;;5135906;28;20043;-77
2023/08/09 09:09:59;;;;;;;8.57;5.93;;;18.80;93.60;;;;;;5117759;28;20096;-77
2023/08/09 09:12:25;;;;;;;8.88;5.85;;;18.90;93.40;;;;;;5135781;28;20012;-77
2023/08/09 09:14:52;;;;;;;7.53;5.72;;;18.80;92.70;;;;;;5117763;28;20032;-77
2023/08/09 09:17:19;;;;;;;7.20;4.22;;;18.80;93.00;;;;;;5135664;28;20050;-77
2023/08/09 09:19:46;;;;;;;7.90;4.30;;;18.80;92.00;;;;;;5135639;28;20032;-78
2023/08/09 09:22:34;;;;;;;7.57;4.00;;;18.90;91.60;;;;;;5135536;28;20049;-78
2023/08/09 09:25:00;;;;;;;8.02;4.78;;;18.70;90.40;;;;;;5117840;28;20047;-78
2023/08/09 09:27:33;;;;;;;9.13;4.60;;;18.70;91.60;;;;;;5135255;28;20020;-77
2023/08/09 09:30:12;;;;;;;10.68;4.85;;;18.70;90.60;;;;;;5135353;28;20018;-78
2023/08/09 09:33:03;;;;;;;5.80;4.35;;;18.70;91.00;;;;;;5135305;28;20020;-78
2023/08/09 09:35:32;;;;;;;8.60;5.15;;;18.60;91.00;;;;;;5135262;28;20079;-78
2023/08/09 09:37:59;;;;;;;7.07;4.10;;;18.70;91.40;;;;;;5135285;28;20035;-78
2023/08/09 09:40:32;;;;;;;5.38;3.30;;;18.80;91.20;;;;;;5100475;28;20035;-78
2023/08/09 09:42:59;;;;;;;4.03;2.55;;;18.80;90.00;;;;;;5135312;28;20557;-78
2023/08/09 09:45:27;;;;;;;5.78;2.63;;;18.80;88.90;;;;;;5134883;28;20051;-77
2023/08/09 09:47:54;;;;;;;4.88;2.92;;;18.90;88.60;;;;;;5135088;28;20030;-78
2023/08/09 09:50:25;;;;;;;4.65;2.53;;;19.10;90.10;;;;;;5116905;28;20024;-78
2023/08/09 09:52:54;;;;;;;7.05;3.70;;;19.20;90.10;;;;;;5100302;28;20027;-77
2023/08/09 09:55:27;;;;;;;6.55;3.60;;;19.30;90.40;;;;;;5100370;28;20055;-78
2023/08/09 09:57:54;;;;;;;6.20;3.70;;;19.30;90.00;;;;;;5116925;28;20031;-78
2023/08/09 10:00:21;;;;;;;5.35;2.95;;;19.40;88.60;;;;;;5134866;28;20045;-77
2023/08/09 10:02:49;;;;;;;5.07;2.22;;;19.30;86.20;;;;;;5134792;28;20020;-77
2023/08/09 10:05:20;;;;;;;4.15;3.05;;;19.40;86.50;;;;;;5134676;28;20083;-78
2023/08/09 10:07:47;;;;;;;6.28;3.55;;;19.40;87.30;;;;;;5134742;28;20098;-77
2023/08/09 10:10:13;;;;;;;7.05;4.43;;;19.40;88.60;;;;;;5116573;28;20024;-77
2023/08/09 10:12:54;;;;;;;6.85;3.78;;;19.40;89.70;;;;;;5099935;28;20024;-77
2023/08/09 10:15:28;;;;;;;8.18;4.60;;;19.50;89.20;;;;;;5134559;28;20024;-78
2023/08/09 10:18:02;;;;;;;9.10;4.78;;;19.60;89.80;;;;;;5134591;28;20023;-78
2023/08/09 10:20:29;;;;;;;7.30;4.43;;;19.60;88.00;;;;;;5134533;28;20023;-77
2023/08/09 10:22:58;;;;;;;9.02;4.68;;;19.70;90.00;;;;;;5134411;28;20024;-77
2023/08/09 10:25:46;;;;;;;7.78;4.70;;;19.70;89.40;;;;;;5134306;28;20386;-78
2023/08/09 10:28:12;;;;;;;8.50;4.25;;;19.90;90.40;;;;;;5134500;28;20031;-77
2023/08/09 10:30:54;;;;;;;7.70;4.70;;;19.80;88.30;;;;;;5134314;28;20016;-77
2023/08/09 10:33:20;;;;;;;12.85;5.78;;;19.70;90.10;;;;;;5116748;28;20028;-77
2023/08/09 10:35:54;;;;;;;7.30;4.35;;;19.70;90.30;;;;;;5116253;28;20039;-77
2023/08/09 10:38:38;;;;;;;7.07;4.65;;;19.60;90.10;;;;;;5134346;28;20087;-77
2023/08/09 10:41:08;;;;;;;8.27;4.70;;;19.70;89.60;;;;;;5134187;28;20056;-77
2023/08/09 10:43:34;;;;;;;9.68;4.60;;;19.80;89.50;;;;;;5134270;28;20024;-78
2023/08/09 10:46:17;;;;;;;6.95;4.55;;;19.70;89.10;;;;;;5133811;28;20417;-78
2023/08/09 10:48:52;;;;;;;7.45;4.32;;;19.80;90.20;;;;;;5116042;28;20027;-78
2023/08/09 10:51:21;;;;;;;7.03;4.38;;;19.80;90.00;;;;;;5134213;28;20049;-77
2023/08/09 10:54:02;;;;;;;6.00;4.40;;;19.80;88.80;;;;;;5115750;28;20058;-77
2023/08/09 10:56:42;;;;;;;7.35;4.45;;;19.80;88.20;;;;;;5133985;28;20023;-77
2023/08/09 10:59:24;;;;;;;7.10;4.47;;;19.80;89.00;;;;;;5116040;28;20028;-77
2023/08/09 11:01:51;;;;;;;6.50;3.90;;;19.80;86.90;;;;;;5133931;28;20024;-77
2023/08/09 11:04:19;;;;;;;6.47;4.38;;;19.90;89.70;;;;;;5133823;28;20035;-78
2023/08/09 11:06:47;;;;;;;9.27;4.80;;;20.00;88.00;;;;;;5133848;28;20055;-77
2023/08/09 11:09:24;;;;;;;6.53;3.97;;;20.10;89.20;;;;;;5115973;28;20087;-77
2023/08/09 11:11:51;;;;;;;7.85;3.80;;;20.20;88.40;;;;;;5133877;28;20022;-78
2023/08/09 11:14:22;;;;;;;6.38;4.28;;;20.20;87.80;;;;;;5099049;28;20081;-77
2023/08/09 11:16:49;;;;;;;5.55;4.13;;;20.30;88.80;;;;;;5115743;28;20023;-77
2023/08/09 11:19:18;;;;;;;5.18;3.85;;;20.40;87.30;;;;;;5133907;28;20022;-78
2023/08/09 11:21:45;;;;;;;5.05;4.18;;;20.40;86.40;;;;;;5133757;28;20022;-77
2023/08/09 11:24:13;;;;;;;6.18;4.65;;;20.50;85.10;;;;;;5133652;28;20034;-77
2023/08/09 11:26:48;;;;;;;6.50;5.00;;;20.60;85.00;;;;;;5133718;28;20032;-77
2023/08/09 11:29:15;;;;;;;8.57;5.47;;;20.60;83.50;;;;;;5133716;28;20054;-77
2023/08/09 11:31:46;;;;;;;7.60;4.95;;;20.60;85.70;;;;;;5133654;28;20093;-77
2023/08/09 11:34:14;;;;;;;6.28;4.80;;;20.50;84.30;;;;;;5133604;28;20020;-77
2023/08/09 11:36:40;;;;;;;7.80;4.93;;;20.50;85.80;;;;;;5133589;28;20028;-77
2023/08/09 11:39:08;;;;;;;6.88;5.13;;;20.60;85.40;;;;;;5133592;28;20024;-77
2023/08/09 11:41:55;;;;;;;8.15;6.38;;;20.60;86.10;;;;;;5115961;28;20054;-78
2023/08/09 11:44:26;;;;;;;9.38;6.55;;;20.80;86.50;;;;;;5115413;28;20024;-77
2023/08/09 11:46:56;;;;;;;10.50;6.65;;;21.00;85.80;;;;;;5133580;28;20490;-77
2023/08/09 11:49:30;;;;;;;8.80;5.97;;;21.20;86.30;;;;;;5115626;28;20035;-77
2023/08/09 11:51:57;;;;;;;9.73;5.85;;;21.10;83.30;;;;;;5133465;28;20027;-77
2023/08/09 11:54:23;;;;;;;7.38;5.70;;;21.10;83.60;;;;;;5133413;28;20015;-77
2023/08/09 11:56:49;;;;;;;11.85;7.05;;;21.00;82.00;;;;;;5133419;28;20027;-77
2023/08/09 11:59:19;;;;;;;7.93;5.90;;;21.00;82.60;;;;;;5115541;28;20102;-77
2023/08/09 12:01:47;;;;;;;10.85;5.95;;;20.90;83.90;;;;;;5133341;28;20020;-77
2023/08/09 12:04:19;;;;;;;6.63;5.47;;;20.80;84.50;;;;;;5134083;28;20008;-77
2023/08/09 12:06:56;;;;;;;7.28;5.55;;;20.80;83.90;;;;;;5137156;28;20103;-77
2023/08/09 12:09:39;;;;;;;7.15;5.50;;;20.80;83.60;;;;;;5137092;28;20075;-77
2023/08/09 12:12:04;;;;;;;7.13;5.82;;;20.80;84.50;;;;;;5137052;28;20020;-77
2023/08/09 12:14:31;;;;;;;11.60;7.38;;;21.00;83.00;;;;;;5136931;28;20069;-77
2023/08/09 12:16:57;;;;;;;8.00;5.70;;;21.20;83.80;;;;;;5118866;28;20027;-77
2023/08/09 12:19:22;;;;;;;6.07;5.10;;;21.30;79.70;;;;;;5136811;28;20088;-77
2023/08/09 12:21:48;;;;;;;6.15;4.93;;;21.40;81.70;;;;;;5118859;28;20024;-78
2023/08/09 12:24:14;;;;;;;6.70;5.00;;;21.50;82.20;;;;;;5118738;28;20035;-77
2023/08/09 12:26:40;;;;;;;6.13;4.72;;;21.80;82.40;;;;;;5118589;28;20043;-78
2023/08/09 12:29:07;;;;;;;8.18;4.28;;;21.90;82.10;;;;;;5136622;28;20031;-77
2023/08/09 12:31:33;;;;;;;5.57;4.95;;;22.10;81.80;;;;;;5136598;28;20016;-78
2023/08/09 12:33:58;;;;;;;6.13;5.28;;;22.20;81.40;;;;;;5136547;28;20027;-77
2023/08/09 12:36:24;;;;;;;5.60;4.97;;;22.20;80.20;;;;;;5118359;28;20023;-77
2023/08/09 12:38:50;;;;;;;5.45;4.07;;;22.10;78.30;;;;;;5136461;28;20024;-77
2023/08/09 12:41:15;;;;;;;6.25;3.97;;;22.00;77.40;;;;;;5136451;28;20107;-78
2023/08/09 12:43:41;;;;;;;4.55;3.50;;;21.90;77.40;;;;;;5118330;28;20027;-77
2023/08/09 12:46:06;;;;;;;6.07;3.90;;;21.90;78.20;;;;;;5118096;28;20074;-77